Time;durP1;ratioP1;P1;durP2;ratioP2;P2;SDS_P1;SDS_P2;PMS_P1;PMS_P2;Temp;Humidity;BMP_temperature;BMP_pressure;BME280_temperature;BME280_humidity;BME280_pressure;Samples;Min_cycle;Max_cycle;Signal;HPM_P1;HPM_P2
2022/03/31 00:00:32;;;;;;;26.77;7.53;;;4.90;99.90;;;;;;5006490;28;20046;-75
2022/03/31 00:03:07;;;;;;;16.25;6.90;;;4.90;99.90;;;;;;4989246;28;20034;-76
2022/03/31 00:05:34;;;;;;;11.32;5.65;;;4.90;99.90;;;;;;4989452;28;20037;-75
2022/03/31 00:08:02;;;;;;;10.70;5.43;;;4.90;99.90;;;;;;5006073;28;20030;-74
2022/03/31 00:10:32;;;;;;;12.57;5.65;;;4.80;99.90;;;;;;5006481;28;20042;-75
2022/03/31 00:13:10;;;;;;;14.35;5.78;;;4.80;99.90;;;;;;4988869;28;20102;-76
2022/03/31 00:15:37;;;;;;;14.98;6.05;;;4.80;99.90;;;;;;4988340;28;20131;-74
2022/03/31 00:18:04;;;;;;;14.35;5.95;;;4.70;99.90;;;;;;5006363;28;20041;-74
2022/03/31 00:20:30;;;;;;;16.10;6.10;;;4.80;99.90;;;;;;5005626;28;20089;-74
2022/03/31 00:22:55;;;;;;;16.50;7.18;;;4.80;99.90;;;;;;4988359;28;20050;-75
2022/03/31 00:25:28;;;;;;;9.82;5.80;;;4.80;99.90;;;;;;4988761;28;20026;-76
2022/03/31 00:27:57;;;;;;;14.40;5.32;;;4.70;99.90;;;;;;4987993;28;20030;-75
2022/03/31 00:30:24;;;;;;;15.23;6.40;;;4.80;99.90;;;;;;5006283;28;20050;-75
2022/03/31 00:32:50;;;;;;;13.43;5.95;;;4.70;99.90;;;;;;4988331;28;20080;-74
2022/03/31 00:35:15;;;;;;;9.95;5.30;;;4.80;99.90;;;;;;5005664;28;20078;-75
2022/03/31 00:37:44;;;;;;;11.88;5.88;;;4.90;99.90;;;;;;5006015;28;20038;-76
2022/03/31 00:40:12;;;;;;;12.98;6.13;;;4.90;99.90;;;;;;5002083;28;20046;-75
2022/03/31 00:42:47;;;;;;;7.93;4.85;;;4.90;99.90;;;;;;4988423;28;20026;-76
2022/03/31 00:45:14;;;;;;;11.65;5.57;;;4.90;99.90;;;;;;5006264;28;20026;-74
2022/03/31 00:47:40;;;;;;;10.80;5.20;;;4.90;99.90;;;;;;5004418;28;20045;-74
2022/03/31 00:50:07;;;;;;;9.40;4.65;;;4.90;99.90;;;;;;4988484;28;20027;-76
2022/03/31 00:52:32;;;;;;;9.23;5.45;;;4.90;99.90;;;;;;5005984;28;20035;-74
2022/03/31 00:54:58;;;;;;;12.27;5.53;;;4.90;99.90;;;;;;4986715;28;20023;-74
2022/03/31 00:57:31;;;;;;;17.05;5.78;;;4.90;99.90;;;;;;4973981;28;20035;-75
2022/03/31 00:59:57;;;;;;;22.05;5.93;;;4.90;99.90;;;;;;4981985;28;20042;-73
2022/03/31 01:02:26;;;;;;;8.27;5.05;;;4.90;99.90;;;;;;4985748;28;20033;-74
2022/03/31 01:04:53;;;;;;;9.82;5.35;;;4.80;99.90;;;;;;4986127;28;20062;-74
2022/03/31 01:07:21;;;;;;;9.65;4.00;;;4.80;99.90;;;;;;4986141;28;20027;-76
2022/03/31 01:09:47;;;;;;;10.93;4.45;;;4.80;99.90;;;;;;4985410;28;20054;-75
2022/03/31 01:12:13;;;;;;;8.90;3.92;;;4.80;99.90;;;;;;4986252;28;20071;-75
2022/03/31 01:14:39;;;;;;;8.15;4.53;;;4.70;99.90;;;;;;4998755;28;20035;-76
2022/03/31 01:17:05;;;;;;;9.23;3.97;;;4.80;99.90;;;;;;4989291;28;20042;-74
2022/03/31 01:19:30;;;;;;;8.23;3.88;;;4.70;99.90;;;;;;4985998;28;20030;-74
2022/03/31 01:21:58;;;;;;;10.55;5.00;;;4.80;99.90;;;;;;4968139;28;20491;-74
2022/03/31 01:24:23;;;;;;;7.53;3.97;;;4.70;99.90;;;;;;4985562;28;20034;-75
2022/03/31 01:26:49;;;;;;;6.30;3.40;;;4.60;99.90;;;;;;4986046;28;20045;-75
2022/03/31 01:29:15;;;;;;;7.25;3.30;;;4.60;99.90;;;;;;4967972;28;20035;-76
2022/03/31 01:31:41;;;;;;;8.20;3.47;;;4.60;99.90;;;;;;4984728;28;20449;-75
2022/03/31 01:34:07;;;;;;;7.85;3.30;;;4.50;99.90;;;;;;4987483;28;20034;-75
2022/03/31 01:36:35;;;;;;;6.90;3.17;;;4.50;99.90;;;;;;5005610;28;20030;-75
2022/03/31 01:39:01;;;;;;;9.10;3.13;;;4.50;99.90;;;;;;5005045;28;20048;-75
2022/03/31 01:41:26;;;;;;;12.50;2.83;;;4.50;99.90;;;;;;4987464;28;20172;-75
2022/03/31 01:43:52;;;;;;;6.88;3.15;;;4.40;99.90;;;;;;5006263;28;20070;-75
2022/03/31 01:46:18;;;;;;;5.95;3.03;;;4.40;99.90;;;;;;5009242;28;20423;-74
2022/03/31 01:48:43;;;;;;;8.18;2.97;;;4.50;99.90;;;;;;4991892;28;20026;-75
2022/03/31 01:51:09;;;;;;;4.43;2.53;;;4.40;99.90;;;;;;5009128;28;20030;-75
2022/03/31 01:53:38;;;;;;;7.95;2.72;;;4.50;99.90;;;;;;5009075;28;20104;-76
2022/03/31 01:56:04;;;;;;;6.95;3.08;;;4.40;99.90;;;;;;4992060;28;20080;-75
2022/03/31 01:58:30;;;;;;;6.38;3.92;;;4.40;99.90;;;;;;4990949;28;20072;-74
2022/03/31 02:00:57;;;;;;;5.30;3.20;;;4.50;99.90;;;;;;4992186;28;20038;-75
2022/03/31 02:03:28;;;;;;;6.68;3.58;;;4.50;99.90;;;;;;5009250;28;20030;-75
2022/03/31 02:05:53;;;;;;;6.50;2.90;;;4.50;99.90;;;;;;5008790;28;20026;-74
2022/03/31 02:08:19;;;;;;;9.07;3.75;;;4.50;99.90;;;;;;4991212;28;20045;-75
2022/03/31 02:10:45;;;;;;;7.45;3.10;;;4.50;99.90;;;;;;4991515;28;20050;-77
2022/03/31 02:13:10;;;;;;;6.13;3.38;;;4.50;99.90;;;;;;4990963;28;20049;-74
2022/03/31 02:15:43;;;;;;;4.55;2.90;;;4.50;99.90;;;;;;5008730;28;20035;-75
2022/03/31 02:18:09;;;;;;;7.30;3.42;;;4.50;99.90;;;;;;5008958;28;20117;-77
2022/03/31 02:20:36;;;;;;;6.22;3.38;;;4.50;99.90;;;;;;4990803;28;20077;-77
2022/03/31 02:23:04;;;;;;;6.22;2.88;;;4.50;99.90;;;;;;5008610;28;20096;-76
2022/03/31 02:25:29;;;;;;;5.57;3.08;;;4.50;99.90;;;;;;4990526;28;20032;-76
2022/03/31 02:27:55;;;;;;;5.25;2.80;;;4.40;99.90;;;;;;4990396;28;20042;-76
2022/03/31 02:30:22;;;;;;;8.15;2.92;;;4.50;99.90;;;;;;5008473;28;20031;-75
2022/03/31 02:32:48;;;;;;;3.80;2.42;;;4.40;99.90;;;;;;5008758;28;20070;-76
2022/03/31 02:35:17;;;;;;;9.38;3.20;;;4.30;99.90;;;;;;4990349;28;20032;-77
2022/03/31 02:37:43;;;;;;;6.57;2.83;;;4.50;99.90;;;;;;5008460;28;20026;-75
2022/03/31 02:40:09;;;;;;;5.45;2.70;;;4.40;99.90;;;;;;4988338;28;20062;-76
2022/03/31 02:42:39;;;;;;;7.85;2.78;;;4.40;99.90;;;;;;5008101;28;20027;-76
2022/03/31 02:45:07;;;;;;;7.03;3.22;;;4.30;99.90;;;;;;5008254;28;20086;-75
2022/03/31 02:47:35;;;;;;;6.95;3.20;;;4.30;99.90;;;;;;4990368;28;20498;-77
2022/03/31 02:50:03;;;;;;;5.18;3.08;;;4.30;99.90;;;;;;4990039;28;20535;-76
2022/03/31 02:55:24;;;;;;;5.65;3.17;;;4.20;99.90;;;;;;5007901;28;20026;-75
2022/03/31 02:55:28;;;;;;;9.02;2.70;;;4.20;99.90;;;;;;5006520;28;20026;-76
2022/03/31 02:57:55;;;;;;;6.38;2.42;;;4.20;99.90;;;;;;5008435;28;20117;-75
2022/03/31 03:00:21;;;;;;;5.40;2.10;;;4.20;99.90;;;;;;5008346;28;20038;-74
2022/03/31 03:02:47;;;;;;;4.00;2.05;;;4.10;99.90;;;;;;5007567;28;20109;-75
2022/03/31 03:05:14;;;;;;;10.63;2.80;;;4.10;99.90;;;;;;4990791;28;20031;-76
2022/03/31 03:07:40;;;;;;;10.02;2.97;;;4.00;99.90;;;;;;5008364;28;20041;-76
2022/03/31 03:10:05;;;;;;;6.55;3.08;;;4.00;99.90;;;;;;4990220;28;20026;-76
2022/03/31 03:12:34;;;;;;;5.30;2.85;;;4.00;99.90;;;;;;5007950;28;20081;-76
2022/03/31 03:14:59;;;;;;;3.72;2.20;;;4.00;99.90;;;;;;5007666;28;20027;-76
2022/03/31 03:17:25;;;;;;;3.40;2.05;;;4.00;99.90;;;;;;5007221;28;20053;-76
2022/03/31 03:19:50;;;;;;;6.43;3.13;;;3.90;99.90;;;;;;4989865;28;20039;-75
2022/03/31 03:22:16;;;;;;;8.70;2.08;;;3.90;99.90;;;;;;5007087;28;20099;-76
2022/03/31 03:24:41;;;;;;;5.82;2.38;;;3.90;99.90;;;;;;4989579;28;20058;-77
2022/03/31 03:27:07;;;;;;;3.28;2.10;;;3.80;99.90;;;;;;5007673;28;20030;-75
2022/03/31 03:29:33;;;;;;;3.42;2.20;;;3.80;99.90;;;;;;5006115;28;20022;-76
2022/03/31 03:31:58;;;;;;;6.38;2.15;;;3.80;99.90;;;;;;5007001;28;20061;-78
2022/03/31 03:34:24;;;;;;;11.20;2.25;;;3.80;99.90;;;;;;5007478;28;20022;-75
2022/03/31 03:36:50;;;;;;;5.35;1.85;;;3.70;99.90;;;;;;5007425;28;20022;-77
2022/03/31 03:39:17;;;;;;;9.93;2.85;;;3.70;99.90;;;;;;4989124;28;20034;-75
2022/03/31 03:41:43;;;;;;;3.58;2.03;;;3.60;99.90;;;;;;5007285;28;20030;-75
2022/03/31 03:44:09;;;;;;;3.20;1.60;;;3.50;99.90;;;;;;5007150;28;20019;-77
2022/03/31 03:46:37;;;;;;;3.00;1.80;;;3.50;99.90;;;;;;5005509;28;20057;-75
2022/03/31 03:49:03;;;;;;;4.38;1.85;;;3.60;99.90;;;;;;5007340;28;20019;-76
2022/03/31 03:51:28;;;;;;;4.03;2.17;;;3.50;99.90;;;;;;5006611;28;20026;-75
2022/03/31 03:53:54;;;;;;;3.75;1.65;;;3.50;99.90;;;;;;4989296;28;20030;-75
2022/03/31 03:56:20;;;;;;;3.38;2.00;;;3.50;99.90;;;;;;5005355;28;20023;-77
2022/03/31 03:58:46;;;;;;;3.92;2.08;;;3.40;99.90;;;;;;4988871;28;20878;-76
2022/03/31 04:01:12;;;;;;;4.75;1.98;;;3.40;99.90;;;;;;5006332;28;20098;-76
2022/03/31 04:03:37;;;;;;;5.20;1.80;;;3.40;99.90;;;;;;5006514;28;20034;-75
2022/03/31 04:06:11;;;;;;;7.82;2.90;;;3.40;99.90;;;;;;4988711;28;20038;-78
2022/03/31 04:08:39;;;;;;;5.25;2.17;;;3.30;99.90;;;;;;5004168;28;20049;-75
2022/03/31 04:11:05;;;;;;;4.03;2.17;;;3.20;99.90;;;;;;4985587;28;20023;-75
2022/03/31 04:13:46;;;;;;;5.07;2.88;;;3.20;99.90;;;;;;4986597;28;20027;-76
2022/03/31 04:16:12;;;;;;;7.40;2.15;;;3.20;99.90;;;;;;4973086;28;20032;-76
2022/03/31 04:18:38;;;;;;;9.95;2.88;;;3.20;99.90;;;;;;5006107;28;20032;-75
2022/03/31 04:21:04;;;;;;;5.28;2.65;;;3.20;99.90;;;;;;5006575;28;20150;-74
2022/03/31 04:23:37;;;;;;;4.10;2.35;;;3.20;99.90;;;;;;5006099;28;20050;-75
2022/03/31 04:26:03;;;;;;;4.35;2.22;;;3.10;99.90;;;;;;5006284;28;20018;-76
2022/03/31 04:28:29;;;;;;;6.45;2.72;;;3.10;99.90;;;;;;5006256;28;20025;-74
2022/03/31 04:30:54;;;;;;;5.65;2.65;;;3.10;99.90;;;;;;4986372;28;20030;-75
2022/03/31 04:33:40;;;;;;;4.63;2.33;;;3.00;99.90;;;;;;4968902;28;20031;-76
2022/03/31 04:36:06;;;;;;;4.35;2.47;;;2.90;99.90;;;;;;4968933;28;20054;-76
2022/03/31 04:38:32;;;;;;;7.03;3.47;;;3.00;99.90;;;;;;4986245;28;20050;-75
2022/03/31 04:40:57;;;;;;;3.63;2.28;;;2.90;99.90;;;;;;4998692;28;20483;-76
2022/03/31 04:43:23;;;;;;;6.47;2.97;;;2.80;99.90;;;;;;5005977;28;20058;-76
2022/03/31 04:45:49;;;;;;;5.40;2.63;;;2.80;99.90;;;;;;4988301;28;20027;-74
2022/03/31 04:48:14;;;;;;;6.22;2.83;;;2.80;99.90;;;;;;5005132;28;20053;-75
2022/03/31 04:50:47;;;;;;;4.10;2.47;;;2.80;99.90;;;;;;4988310;28;20107;-76
2022/03/31 04:53:14;;;;;;;7.22;2.20;;;2.80;99.90;;;;;;4987441;28;20061;-73
2022/03/31 04:55:41;;;;;;;8.02;3.53;;;2.70;99.90;;;;;;5005636;28;20084;-75
2022/03/31 04:58:06;;;;;;;4.47;2.08;;;2.60;99.90;;;;;;5005593;28;20060;-75
2022/03/31 05:00:32;;;;;;;5.15;2.65;;;2.50;99.90;;;;;;5005256;28;20042;-75
2022/03/31 05:02:59;;;;;;;5.85;3.03;;;2.50;99.90;;;;;;4988248;28;20069;-75
2022/03/31 05:05:25;;;;;;;7.22;3.50;;;2.40;99.90;;;;;;5004271;28;20026;-75
2022/03/31 05:07:51;;;;;;;6.70;2.88;;;2.40;99.90;;;;;;5005074;28;20022;-74
2022/03/31 05:10:17;;;;;;;5.35;3.10;;;2.40;99.90;;;;;;5005226;28;20031;-73
2022/03/31 05:12:43;;;;;;;5.57;2.63;;;2.30;99.90;;;;;;5005333;28;20064;-72
2022/03/31 05:15:11;;;;;;;7.75;3.22;;;2.30;99.90;;;;;;5005143;28;20026;-75
2022/03/31 05:17:37;;;;;;;6.03;3.58;;;2.30;99.90;;;;;;5004313;28;20029;-75
2022/03/31 05:20:08;;;;;;;4.25;2.22;;;2.30;99.90;;;;;;5005015;28;20071;-75
2022/03/31 05:22:35;;;;;;;9.10;3.22;;;2.40;99.90;;;;;;5005031;28;20050;-76
2022/03/31 05:25:02;;;;;;;9.88;3.70;;;2.30;99.90;;;;;;5005481;28;20022;-75
2022/03/31 05:27:31;;;;;;;9.02;3.63;;;2.30;99.90;;;;;;4987765;28;20030;-79
2022/03/31 05:29:57;;;;;;;6.32;3.65;;;2.30;99.90;;;;;;4998603;28;20033;-74
2022/03/31 05:32:24;;;;;;;6.45;3.10;;;2.20;99.90;;;;;;4985679;28;20062;-76
2022/03/31 05:34:50;;;;;;;6.28;3.05;;;2.20;99.90;;;;;;4967989;28;20027;-76
2022/03/31 05:37:16;;;;;;;7.65;3.42;;;2.20;99.90;;;;;;4985286;28;20037;-78
2022/03/31 05:39:45;;;;;;;7.78;3.67;;;2.20;99.90;;;;;;4960249;28;20043;-76
2022/03/31 05:42:12;;;;;;;7.00;3.15;;;2.20;99.90;;;;;;4977270;28;20019;-75
2022/03/31 05:44:38;;;;;;;7.25;3.13;;;2.10;99.90;;;;;;4983801;28;20050;-75
2022/03/31 05:47:04;;;;;;;7.65;3.42;;;2.20;99.90;;;;;;4953599;28;20023;-76
2022/03/31 05:49:29;;;;;;;6.90;3.47;;;2.20;99.90;;;;;;4975619;28;20158;-75
2022/03/31 05:51:55;;;;;;;8.13;3.67;;;2.10;99.90;;;;;;4965911;29;20027;-74
2022/03/31 05:54:21;;;;;;;5.60;3.10;;;2.10;99.90;;;;;;4965741;29;20027;-74
2022/03/31 05:56:46;;;;;;;5.60;3.63;;;2.20;99.90;;;;;;4965976;28;20031;-74
2022/03/31 05:59:13;;;;;;;8.05;3.78;;;2.10;99.90;;;;;;4973121;28;20034;-73
2022/03/31 06:01:39;;;;;;;6.00;3.63;;;2.20;99.90;;;;;;4976411;28;20019;-75
2022/03/31 06:04:05;;;;;;;7.70;3.83;;;2.10;99.90;;;;;;4956033;29;20035;-73
2022/03/31 06:06:30;;;;;;;8.57;4.57;;;2.10;99.90;;;;;;4965409;29;20422;-74
2022/03/31 06:08:56;;;;;;;8.20;4.40;;;2.10;99.90;;;;;;4982026;28;20066;-73
2022/03/31 06:11:22;;;;;;;9.68;4.38;;;2.10;99.90;;;;;;4967851;28;20034;-73
2022/03/31 06:13:47;;;;;;;8.75;4.10;;;2.10;99.90;;;;;;4985220;28;20030;-73
2022/03/31 06:16:13;;;;;;;12.95;4.97;;;2.20;99.90;;;;;;4984360;28;20015;-75
2022/03/31 06:18:39;;;;;;;10.85;4.90;;;2.10;99.90;;;;;;4985085;28;20109;-75
2022/03/31 06:21:12;;;;;;;9.30;4.88;;;2.20;99.90;;;;;;4976022;28;20492;-78
2022/03/31 06:23:39;;;;;;;9.75;4.25;;;2.20;99.90;;;;;;4964559;28;20150;-77
2022/03/31 06:26:07;;;;;;;7.57;4.10;;;2.10;99.90;;;;;;4963935;29;20046;-77
2022/03/31 06:28:41;;;;;;;10.57;4.82;;;2.20;99.90;;;;;;4985167;28;20038;-77
2022/03/31 06:31:07;;;;;;;;;;;2.20;99.90;;;;;;4988302;28;20030;-75
2022/03/31 06:33:33;;;;;;;8.70;4.10;;;2.20;99.90;;;;;;4966351;29;19906;-75
2022/03/31 06:35:58;;;;;;;8.43;4.15;;;2.20;99.90;;;;;;4975580;28;20062;-76
2022/03/31 06:38:24;;;;;;;10.70;5.15;;;2.20;99.90;;;;;;4958640;28;20031;-75
2022/03/31 06:43:35;;;;;;;11.95;4.53;;;2.10;99.90;;;;;;4984996;28;20069;-77
2022/03/31 06:46:01;;;;;;;10.77;4.45;;;2.10;99.90;;;;;;4984653;28;20087;-77
2022/03/31 06:48:27;;;;;;;10.85;4.85;;;2.10;99.90;;;;;;4987126;28;20035;-77
2022/03/31 06:50:53;;;;;;;10.35;4.82;;;2.10;99.90;;;;;;4984512;28;20039;-79
2022/03/31 06:53:39;;;;;;;10.60;5.30;;;2.10;99.90;;;;;;4968396;28;20037;-77
2022/03/31 06:56:16;;;;;;;10.48;4.75;;;2.10;99.90;;;;;;4984138;28;20027;-77
2022/03/31 06:58:42;;;;;;;9.25;4.78;;;2.10;99.90;;;;;;4980959;28;20347;-77
2022/03/31 07:01:07;;;;;;;9.80;4.75;;;2.10;99.90;;;;;;4964532;28;20062;-75
2022/03/31 07:03:33;;;;;;;7.70;4.53;;;2.10;99.90;;;;;;4989222;28;20050;-78
2022/03/31 07:06:09;;;;;;;12.07;4.35;;;2.10;99.90;;;;;;4970458;28;20029;-77
2022/03/31 07:08:35;;;;;;;8.27;4.13;;;2.10;99.90;;;;;;4985545;28;20462;-75
2022/03/31 07:11:02;;;;;;;9.88;5.25;;;2.00;99.90;;;;;;4982289;28;20039;-75
2022/03/31 07:13:28;;;;;;;10.15;4.88;;;2.00;99.90;;;;;;4958472;28;20086;-75
2022/03/31 07:15:54;;;;;;;8.82;4.20;;;2.00;99.90;;;;;;4987999;28;20034;-76
2022/03/31 07:18:20;;;;;;;7.70;4.10;;;2.00;99.90;;;;;;4970875;28;20023;-75
2022/03/31 07:20:45;;;;;;;13.43;4.78;;;2.00;99.90;;;;;;4961235;28;20046;-77
2022/03/31 07:23:12;;;;;;;10.38;5.53;;;2.00;99.90;;;;;;4966633;28;20126;-74
2022/03/31 07:25:38;;;;;;;7.60;4.50;;;2.00;99.90;;;;;;4968510;28;20305;-75
2022/03/31 07:28:04;;;;;;;8.95;4.72;;;2.00;99.90;;;;;;4987570;28;20026;-74
2022/03/31 07:30:30;;;;;;;9.73;5.25;;;2.00;99.90;;;;;;4987550;28;20034;-74
2022/03/31 07:32:58;;;;;;;10.15;4.95;;;2.00;99.90;;;;;;4977913;28;20027;-75
2022/03/31 07:35:29;;;;;;;7.78;4.75;;;2.00;99.90;;;;;;4978461;28;20121;-76
2022/03/31 07:37:56;;;;;;;10.27;4.55;;;2.00;99.90;;;;;;4977481;28;20071;-76
2022/03/31 07:40:23;;;;;;;7.45;4.30;;;2.00;99.90;;;;;;4986371;28;20042;-76
2022/03/31 07:42:58;;;;;;;9.55;4.80;;;2.00;99.90;;;;;;4976465;28;20054;-75
2022/03/31 07:45:25;;;;;;;12.55;4.53;;;2.00;99.90;;;;;;4986118;28;20101;-75
2022/03/31 07:47:50;;;;;;;11.75;4.90;;;1.90;99.90;;;;;;4982865;28;20027;-75
2022/03/31 07:50:18;;;;;;;8.05;4.03;;;1.90;99.90;;;;;;4970997;28;20031;-74
2022/03/31 07:52:45;;;;;;;9.05;4.43;;;1.90;99.90;;;;;;4978111;28;20043;-77
2022/03/31 07:55:13;;;;;;;12.05;4.65;;;1.90;99.90;;;;;;4967608;29;20024;-77
2022/03/31 07:57:41;;;;;;;9.85;4.68;;;1.90;99.90;;;;;;4972518;28;20034;-75
2022/03/31 08:00:09;;;;;;;11.20;5.15;;;1.90;99.90;;;;;;4963119;29;20054;-75
2022/03/31 08:02:40;;;;;;;6.53;3.97;;;2.00;99.90;;;;;;4980832;28;20027;-75
2022/03/31 08:05:09;;;;;;;7.88;4.57;;;2.00;99.90;;;;;;4980655;28;20038;-76
2022/03/31 08:07:35;;;;;;;9.55;4.60;;;1.90;99.90;;;;;;4977891;28;20062;-73
2022/03/31 08:10:08;;;;;;;10.63;4.25;;;1.90;99.90;;;;;;4979782;28;20019;-75
2022/03/31 08:12:36;;;;;;;11.35;4.57;;;1.90;99.90;;;;;;4978544;28;20031;-76
2022/03/31 08:15:05;;;;;;;7.70;4.32;;;2.00;99.90;;;;;;4957784;28;20051;-76
2022/03/31 08:17:31;;;;;;;10.82;4.25;;;2.00;99.90;;;;;;4975829;28;20025;-76
2022/03/31 08:19:57;;;;;;;11.52;4.57;;;2.00;99.90;;;;;;4982372;28;20039;-76
2022/03/31 08:22:40;;;;;;;7.47;4.10;;;2.00;99.90;;;;;;4973599;28;20134;-76
2022/03/31 08:25:09;;;;;;;6.75;3.97;;;2.10;99.90;;;;;;4964130;28;20034;-74
2022/03/31 08:27:45;;;;;;;7.43;4.13;;;2.10;99.90;;;;;;4978343;28;20035;-74
2022/03/31 08:30:19;;;;;;;7.30;4.30;;;2.10;99.90;;;;;;4974646;28;20026;-74
2022/03/31 08:32:46;;;;;;;7.32;3.58;;;2.10;99.90;;;;;;4958517;28;20023;-74
2022/03/31 08:35:14;;;;;;;8.32;4.03;;;2.30;99.90;;;;;;4983027;28;20034;-77
2022/03/31 08:37:41;;;;;;;7.15;4.30;;;2.30;99.90;;;;;;4957777;28;20054;-74
2022/03/31 08:40:13;;;;;;;13.38;3.65;;;2.30;99.90;;;;;;4978122;28;20043;-75
2022/03/31 08:42:42;;;;;;;6.72;3.90;;;2.30;99.90;;;;;;4952550;29;20031;-72
2022/03/31 08:45:17;;;;;;;7.07;3.63;;;2.30;99.90;;;;;;4966076;29;20057;-72
2022/03/31 08:47:46;;;;;;;7.28;3.75;;;2.30;99.90;;;;;;4966936;29;20027;-71
2022/03/31 08:50:12;;;;;;;8.55;3.72;;;2.40;99.90;;;;;;4966549;29;20027;-71
2022/03/31 08:52:37;;;;;;;6.50;3.58;;;2.40;99.90;;;;;;4966732;28;20019;-73
2022/03/31 08:55:05;;;;;;;11.98;3.45;;;2.50;99.90;;;;;;4966663;29;20115;-71
2022/03/31 08:57:42;;;;;;;7.30;4.00;;;2.60;99.90;;;;;;4970585;28;20025;-73
2022/03/31 09:00:10;;;;;;;7.68;4.00;;;2.70;99.90;;;;;;4967028;29;20038;-73
2022/03/31 09:02:51;;;;;;;13.27;4.30;;;2.70;99.90;;;;;;4977412;28;20031;-74
2022/03/31 09:05:17;;;;;;;7.18;3.38;;;2.80;99.90;;;;;;4967769;28;20031;-74
2022/03/31 09:07:57;;;;;;;5.50;3.63;;;2.90;99.90;;;;;;4977031;28;20102;-74
2022/03/31 09:10:31;;;;;;;16.45;3.88;;;2.90;99.90;;;;;;4976504;28;20054;-75
2022/03/31 09:12:59;;;;;;;9.30;4.95;;;3.00;99.90;;;;;;4949452;29;20031;-75
2022/03/31 09:15:25;;;;;;;10.23;4.45;;;3.10;99.90;;;;;;4966254;29;20059;-72
2022/03/31 09:17:56;;;;;;;9.27;4.10;;;3.10;99.90;;;;;;4948413;29;20033;-74
2022/03/31 09:20:24;;;;;;;5.97;4.07;;;3.20;99.90;;;;;;4966100;29;20099;-71
2022/03/31 09:22:50;;;;;;;9.32;4.57;;;3.20;99.90;;;;;;4972859;28;20563;-71
2022/03/31 09:25:26;;;;;;;10.95;4.80;;;3.30;99.90;;;;;;4982939;28;20043;-70
2022/03/31 09:27:52;;;;;;;7.50;4.13;;;3.30;99.90;;;;;;4983003;28;20097;-73
2022/03/31 09:30:19;;;;;;;10.85;4.97;;;3.30;99.90;;;;;;4967471;28;20118;-70
2022/03/31 09:32:52;;;;;;;8.55;4.78;;;3.40;99.90;;;;;;4968063;28;20030;-72
2022/03/31 09:35:24;;;;;;;8.57;4.57;;;3.60;99.90;;;;;;4985358;28;20055;-71
2022/03/31 09:37:51;;;;;;;10.60;4.55;;;3.60;99.90;;;;;;4979822;28;20290;-72
2022/03/31 09:40:19;;;;;;;8.07;4.03;;;3.70;99.90;;;;;;4966296;29;20031;-72
2022/03/31 09:42:59;;;;;;;6.57;4.20;;;4.00;99.90;;;;;;4980290;28;20049;-72
2022/03/31 09:45:45;;;;;;;12.77;5.03;;;4.20;99.90;;;;;;4965533;29;20035;-73
2022/03/31 09:48:23;;;;;;;6.95;4.07;;;4.60;99.90;;;;;;4977032;28;20082;-73
2022/03/31 09:50:50;;;;;;;7.20;3.60;;;4.90;99.90;;;;;;4977373;28;20019;-73
2022/03/31 09:53:19;;;;;;;9.98;4.88;;;5.10;99.90;;;;;;4973702;28;20038;-74
2022/03/31 09:55:46;;;;;;;18.05;4.60;;;5.10;99.90;;;;;;4985008;28;20038;-74
2022/03/31 09:58:22;;;;;;;9.63;3.58;;;5.00;99.90;;;;;;4978257;28;20026;-74
2022/03/31 10:00:48;;;;;;;7.40;3.92;;;4.80;99.90;;;;;;4970482;28;20126;-73
2022/03/31 10:03:19;;;;;;;10.00;3.47;;;4.50;99.90;;;;;;4950785;28;20062;-75
2022/03/31 10:05:55;;;;;;;7.18;3.78;;;4.30;99.90;;;;;;4974972;28;20543;-76
2022/03/31 10:08:23;;;;;;;7.45;3.28;;;4.20;99.90;;;;;;4981759;28;20037;-71
2022/03/31 10:10:49;;;;;;;5.63;3.28;;;4.00;99.90;;;;;;4970834;28;20026;-74
2022/03/31 10:13:24;;;;;;;5.40;3.78;;;4.00;99.90;;;;;;4983150;28;20453;-74
2022/03/31 10:16:03;;;;;;;13.10;4.20;;;4.00;99.90;;;;;;4982119;28;20106;-75
2022/03/31 10:18:30;;;;;;;10.43;3.72;;;4.10;99.90;;;;;;4969583;29;20035;-72
2022/03/31 10:20:58;;;;;;;9.15;4.18;;;4.20;99.90;;;;;;4961551;28;20057;-74
2022/03/31 10:26:26;;;;;;;5.00;3.03;;;4.20;99.90;;;;;;4970113;29;20090;-74
2022/03/31 10:29:12;;;;;;;5.80;3.47;;;4.00;99.90;;;;;;4984292;28;20121;-71
2022/03/31 10:31:45;;;;;;;11.85;3.15;;;3.90;99.90;;;;;;4978275;28;20027;-73
2022/03/31 10:34:16;;;;;;;9.10;3.53;;;3.80;99.90;;;;;;4968953;29;20460;-74
2022/03/31 10:36:48;;;;;;;5.95;3.05;;;3.70;99.90;;;;;;4951255;29;20053;-74
2022/03/31 10:39:21;;;;;;;3.72;2.45;;;3.70;99.90;;;;;;4968024;28;20051;-73
2022/03/31 10:41:48;;;;;;;9.30;4.03;;;3.60;99.90;;;;;;4952038;29;20031;-72
2022/03/31 10:44:26;;;;;;;8.60;3.85;;;3.70;99.90;;;;;;4973500;28;20035;-72
2022/03/31 10:47:04;;;;;;;5.10;3.10;;;3.70;99.90;;;;;;4964169;28;20035;-73
2022/03/31 10:49:34;;;;;;;6.95;3.47;;;3.70;99.90;;;;;;4968574;28;20292;-75
2022/03/31 10:52:17;;;;;;;8.07;3.40;;;3.70;99.90;;;;;;4950634;29;20034;-76
2022/03/31 10:54:44;;;;;;;6.35;3.22;;;3.70;99.90;;;;;;4950365;29;20392;-73
2022/03/31 10:57:18;;;;;;;8.80;3.88;;;3.70;99.90;;;;;;4966409;29;20035;-75
2022/03/31 10:59:48;;;;;;;6.72;3.33;;;3.70;99.90;;;;;;4981001;28;20051;-75
2022/03/31 11:02:20;;;;;;;7.07;3.38;;;3.70;99.90;;;;;;4972520;28;20037;-74
2022/03/31 11:04:49;;;;;;;7.40;3.40;;;3.80;99.90;;;;;;4968156;28;20031;-73
2022/03/31 11:07:20;;;;;;;8.20;3.90;;;3.80;99.90;;;;;;4987665;28;20038;-73
2022/03/31 11:09:48;;;;;;;6.78;3.15;;;3.80;99.90;;;;;;4980400;28;20457;-74
2022/03/31 11:12:23;;;;;;;6.03;3.35;;;3.90;99.90;;;;;;4967556;29;20034;-75
2022/03/31 11:14:54;;;;;;;6.32;3.75;;;3.90;99.90;;;;;;4949563;29;20039;-71
2022/03/31 11:17:22;;;;;;;7.45;3.97;;;3.90;99.90;;;;;;4965939;28;20032;-74
2022/03/31 11:19:50;;;;;;;5.95;3.10;;;3.80;99.90;;;;;;4966439;28;20113;-71
2022/03/31 11:22:23;;;;;;;8.23;3.42;;;3.80;99.90;;;;;;4964806;29;20057;-75
2022/03/31 11:24:50;;;;;;;8.15;3.55;;;3.90;99.90;;;;;;4959847;29;20024;-71
2022/03/31 11:27:28;;;;;;;7.78;4.00;;;4.00;99.90;;;;;;4948739;29;20055;-73
2022/03/31 11:29:59;;;;;;;4.78;3.33;;;4.10;99.90;;;;;;4931388;29;20035;-74
2022/03/31 11:32:32;;;;;;;5.30;3.33;;;4.20;99.90;;;;;;4948127;29;20092;-71
2022/03/31 11:34:58;;;;;;;6.75;3.22;;;4.30;99.90;;;;;;4948856;29;20479;-72
2022/03/31 11:37:24;;;;;;;8.07;3.75;;;4.40;99.90;;;;;;4948050;29;20036;-72
2022/03/31 11:39:50;;;;;;;8.85;3.85;;;4.60;99.90;;;;;;4930626;29;20070;-71
2022/03/31 11:42:16;;;;;;;5.15;3.13;;;4.70;99.90;;;;;;4965331;29;20657;-72
2022/03/31 11:44:45;;;;;;;5.97;3.20;;;4.90;99.90;;;;;;4967112;29;20063;-76
2022/03/31 11:47:16;;;;;;;5.25;2.85;;;5.10;99.90;;;;;;4965245;29;20087;-76
2022/03/31 11:49:44;;;;;;;8.68;3.42;;;5.40;99.90;;;;;;4967821;29;20035;-74
2022/03/31 11:52:10;;;;;;;5.60;2.72;;;5.70;99.90;;;;;;4962441;29;20122;-72
2022/03/31 11:54:42;;;;;;;6.68;2.60;;;6.00;99.90;;;;;;4966752;29;20035;-72
2022/03/31 11:57:12;;;;;;;6.78;3.45;;;6.30;99.90;;;;;;4949503;29;20066;-72
2022/03/31 11:59:38;;;;;;;7.10;3.38;;;6.60;99.90;;;;;;4966132;29;20039;-73
2022/03/31 12:02:14;;;;;;;4.35;2.72;;;6.90;99.90;;;;;;4949996;29;20043;-72
2022/03/31 12:04:44;;;;;;;3.78;2.85;;;7.30;99.90;;;;;;4967414;29;20094;-76
2022/03/31 12:07:12;;;;;;;3.97;2.30;;;7.70;99.90;;;;;;4980455;28;20027;-76
2022/03/31 12:09:42;;;;;;;5.38;2.60;;;7.70;99.90;;;;;;4967073;29;20034;-72
2022/03/31 12:12:13;;;;;;;5.97;2.72;;;7.80;99.90;;;;;;4967221;29;20031;-74
2022/03/31 12:14:51;;;;;;;14.80;2.83;;;7.80;99.90;;;;;;4981615;28;20116;-74
2022/03/31 12:17:19;;;;;;;4.45;2.33;;;7.80;99.90;;;;;;4947466;29;20483;-73
2022/03/31 12:19:45;;;;;;;2.83;1.90;;;7.70;99.90;;;;;;4963776;28;20054;-74
2022/03/31 12:22:11;;;;;;;4.10;2.40;;;7.70;99.90;;;;;;4967922;28;20051;-74
2022/03/31 12:24:53;;;;;;;3.88;2.20;;;7.70;99.90;;;;;;4983429;28;20078;-77
2022/03/31 12:27:20;;;;;;;2.05;1.55;;;7.50;99.90;;;;;;4985195;28;20037;-73
2022/03/31 12:30:00;;;;;;;6.45;1.88;;;7.40;99.90;;;;;;4985241;28;20058;-74
2022/03/31 12:32:26;;;;;;;3.60;1.98;;;7.40;99.90;;;;;;4985347;28;20027;-72
2022/03/31 12:35:02;;;;;;;5.00;2.35;;;7.50;99.90;;;;;;4985765;28;20042;-76
2022/03/31 12:37:33;;;;;;;2.50;1.73;;;7.50;99.90;;;;;;4967039;28;20736;-72
2022/03/31 12:40:03;;;;;;;3.28;1.90;;;7.50;99.90;;;;;;4954382;28;20038;-75
2022/03/31 12:42:29;;;;;;;8.88;1.73;;;7.40;99.90;;;;;;4983200;28;20034;-71
2022/03/31 12:44:54;;;;;;;2.60;1.38;;;7.50;99.90;;;;;;4985258;28;20520;-73
2022/03/31 12:47:23;;;;;;;2.78;1.52;;;7.60;99.90;;;;;;4984893;28;20108;-73
2022/03/31 12:49:50;;;;;;;2.70;1.63;;;7.60;99.90;;;;;;4984008;28;20053;-72
2022/03/31 12:52:19;;;;;;;2.63;1.50;;;7.80;99.90;;;;;;4985336;28;20026;-75
2022/03/31 12:54:51;;;;;;;5.90;2.15;;;7.90;99.90;;;;;;4985510;28;20027;-74
2022/03/31 12:57:20;;;;;;;2.45;1.70;;;8.00;99.90;;;;;;4984728;28;20035;-75
2022/03/31 13:00:13;;;;;;;4.57;1.50;;;8.10;99.90;;;;;;4967520;28;20042;-74
2022/03/31 13:02:47;;;;;;;3.67;1.88;;;8.00;99.90;;;;;;4967514;28;20169;-73
2022/03/31 13:05:28;;;;;;;5.50;2.38;;;7.90;99.90;;;;;;4984812;28;20034;-76
2022/03/31 13:07:54;;;;;;;2.95;1.35;;;7.90;99.90;;;;;;4967572;28;20041;-73